Погода Качканна 2 недели

Ростовская область, Россия

25 июля-07 августа
  • 25июля
    Сегодня
    +16°
    +29°
    Облачно с прояснениями
    ВремяПогодаТемператураВлажностьДавлениеВетер, м/сВероятность осадков
    00:00Ясно и безоблачно+18°C75 %739 мм1.7 м/с2 %
    03:00Ясно и безоблачно+16°C77 %739 мм2.9 м/с2 %
    06:00Ясно и безоблачно+16°C70 %739 мм3.3 м/с2 %
    09:00Ясно и безоблачно+23°C45 %740 мм2.9 м/с2 %
    12:00Практически безоблачно+27°C36 %740 мм2.5 м/с2 %
    15:00Облачно с прояснениями+29°C31 %739 мм3.0 м/с2 %
    18:00Ясно и безоблачно+28°C30 %739 мм3.0 м/с2 %
    21:00Ясно и безоблачно+24°C39 %739 мм1.4 м/с2 %
  • 26июля
    Пятница
    +16°
    +31°
    Практически безоблачно
    ВремяПогодаТемператураВлажностьДавлениеВетер, м/сВероятность осадков
    00:00Ясно и безоблачно+20°C57 %739 мм2.0 м/с2 %
    03:00Ясно и безоблачно+18°C62 %739 мм2.2 м/с2 %
    06:00Ясно и безоблачно+18°C66 %739 мм2.6 м/с2 %
    09:00Ясно и безоблачно+25°C45 %740 мм2.8 м/с2 %
    12:00Ясно и безоблачно+28°C37 %740 мм2.7 м/с2 %
    15:00Практически безоблачно+30°C30 %740 мм2.5 м/с1 %
    18:00Практически безоблачно+30°C29 %740 мм3.1 м/с2 %
    21:00Ясно и безоблачно+24°C43 %741 мм2.9 м/с2 %
  • 27июля
    Суббота
    +16°
    +31°
    Небольшая облачность
    ВремяПогодаТемператураВлажностьДавлениеВетер, м/сВероятность осадков
    00:00Ясно и безоблачно+22°C38 %742 мм3.9 м/с2 %
    03:00Ясно и безоблачно+18°C50 %742 мм2.2 м/с2 %
    06:00Ясно и безоблачно+18°C53 %743 мм2.8 м/с2 %
    09:00Небольшая облачность+25°C37 %744 мм2.9 м/с2 %
    12:00Небольшая облачность+29°C27 %745 мм2.7 м/с2 %
    15:00Небольшая облачность+30°C23 %745 мм2.5 м/с3 %
    18:00Облачно с прояснениями+29°C23 %745 мм3.1 м/с3 %
    21:00Ясно и безоблачно+23°C36 %746 мм2.3 м/с2 %
  • 28июля
    Воскресенье
    +18°
    +33°
    Небольшая облачность
    ВремяПогодаТемператураВлажностьДавлениеВетер, м/сВероятность осадков
    00:00Ясно и безоблачно+20°C47 %746 мм2.2 м/с2 %
    03:00Ясно и безоблачно+20°C46 %746 мм1.1 м/с2 %
    06:00Ясно и безоблачно+18°C56 %747 мм1.1 м/с2 %
    09:00Ясно и безоблачно+26°C33 %747 мм1.9 м/с2 %
    12:00Ясно и безоблачно+30°C25 %747 мм1.7 м/с2 %
    15:00Небольшая облачность+33°C21 %746 мм3.4 м/с2 %
    18:00Практически безоблачно+32°C22 %746 мм3.7 м/с2 %
    21:00Небольшая облачность+25°C35 %746 мм2.4 м/с2 %
  • 29июля
    Понедельник
    +20°
    +36°
    Пасмурно, сплошная облачность
    ВремяПогодаТемператураВлажностьДавлениеВетер, м/сВероятность осадков
    00:00Облачно с прояснениями+23°C41 %745 мм1.7 м/с2 %
    03:00Небольшая облачность+20°C50 %745 мм1.7 м/с2 %
    06:00Ясно и безоблачно+21°C59 %744 мм0.5 м/с2 %
    09:00Ясно и безоблачно+29°C30 %745 мм3.0 м/с2 %
    12:00Ясно и безоблачно+33°C26 %744 мм4.4 м/с9 %
    15:00Пасмурно, сплошная облачность+35°C24 %742 мм5.2 м/с9 %
    18:00Практически безоблачно+33°C30 %741 мм6.2 м/с16 %
    21:00Ясно и безоблачно+28°C47 %741 мм4.6 м/с5 %
Мы используем cookies
Соглашаюсь